createdAt,value
2022-11-21T00:03:39.240Z,79.44
2022-11-21T00:08:43.063Z,79.56
2022-11-21T00:13:46.477Z,79.08
2022-11-21T00:18:49.892Z,78.88
2022-11-21T00:23:53.508Z,79.29
2022-11-21T00:28:56.818Z,79.14
2022-11-21T00:34:02.796Z,79.06
2022-11-21T00:39:06.204Z,79.21
2022-11-21T00:44:09.720Z,78.87
2022-11-21T00:49:13.133Z,78.98
2022-11-21T00:54:16.653Z,79.44
2022-11-21T00:59:20.062Z,79.02
2022-11-21T01:04:23.582Z,79.18
2022-11-21T01:09:28.869Z,79.20
2022-11-21T01:14:32.349Z,78.92
2022-11-21T01:19:35.766Z,78.65
2022-11-21T01:24:39.280Z,78.85
2022-11-21T01:29:42.896Z,78.83
2022-11-21T01:34:46.207Z,78.76
2022-11-21T01:39:49.722Z,78.89
2022-11-21T01:44:54.780Z,78.89
2022-11-21T01:49:58.493Z,79.03
2022-11-21T01:55:06.618Z,79.05
2022-11-21T02:00:17.011Z,78.93
2022-11-21T02:05:24.607Z,79.14
2022-11-21T02:10:28.634Z,78.89
2022-11-21T02:15:32.562Z,78.98
2022-11-21T02:20:38.122Z,78.73
2022-11-21T02:25:43.287Z,78.98
2022-11-21T02:30:47.102Z,78.88
2022-11-21T02:36:01.984Z,79.17
2022-11-21T02:41:15.225Z,78.98
2022-11-21T02:46:18.536Z,79.60
2022-11-21T02:51:22.050Z,79.34
2022-11-21T02:56:25.566Z,79.44
2022-11-21T03:01:29.524Z,79.25
2022-11-21T03:06:33.008Z,79.21
2022-11-21T03:11:36.522Z,79.30
2022-11-21T03:16:40.201Z,79.08
2022-11-21T03:21:43.553Z,79.16
2022-11-21T03:26:47.069Z,79.33
2022-11-21T03:31:50.480Z,79.47
2022-11-21T03:36:54.100Z,79.44
2022-11-21T03:41:57.718Z,79.62
2022-11-21T03:47:01.028Z,79.53
2022-11-21T03:52:04.780Z,79.85
2022-11-21T03:57:08.163Z,79.46
2022-11-21T04:02:11.577Z,79.57
2022-11-21T04:07:15.484Z,79.75
2022-11-21T04:12:18.914Z,79.53
2022-11-21T04:17:22.429Z,79.43
2022-11-21T04:22:25.842Z,79.56
2022-11-21T04:27:29.259Z,79.44
2022-11-21T04:32:32.771Z,79.69
2022-11-21T04:37:39.256Z,79.96
2022-11-21T04:42:43.630Z,79.89
2022-11-21T04:47:47.107Z,79.54
2022-11-21T04:52:55.995Z,79.74
2022-11-21T04:58:00.630Z,79.92
2022-11-21T05:03:05.644Z,80.05
2022-11-21T05:08:08.955Z,79.97
2022-11-21T05:13:21.328Z,79.95
2022-11-21T05:18:25.505Z,80.18
2022-11-21T05:23:28.919Z,80.30
2022-11-21T05:28:32.228Z,80.44
2022-11-21T05:33:35.744Z,80.39
2022-11-21T05:38:39.157Z,80.60
2022-11-21T05:43:49.227Z,80.51
2022-11-21T05:48:54.588Z,80.62
2022-11-21T05:53:58.102Z,80.40
2022-11-21T05:59:01.617Z,80.67
2022-11-21T06:04:05.135Z,80.81
2022-11-21T06:09:08.448Z,80.72
2022-11-21T06:14:11.757Z,80.45
2022-11-21T06:19:15.169Z,80.90
2022-11-21T06:24:26.978Z,80.72
2022-11-21T06:29:30.596Z,80.82
2022-11-21T06:34:34.112Z,81.09
2022-11-21T06:39:37.421Z,80.56
2022-11-21T06:44:40.834Z,80.94
2022-11-21T06:49:44.152Z,80.97
2022-11-21T06:54:47.764Z,81.10
2022-11-21T06:59:51.074Z,80.86
2022-11-21T07:04:54.490Z,80.94
2022-11-21T07:09:57.901Z,80.94
2022-11-21T07:15:01.416Z,80.82
2022-11-21T07:20:05.445Z,80.99
2022-11-21T07:25:09.226Z,81.07
2022-11-21T07:30:13.501Z,80.92
2022-11-21T07:35:16.814Z,81.08
2022-11-21T07:40:20.735Z,81.19
2022-11-21T07:45:24.048Z,80.81
2022-11-21T07:50:28.485Z,80.83
2022-11-21T07:55:36.362Z,81.04
2022-11-21T08:00:43.301Z,80.66
2022-11-21T08:05:46.712Z,80.92
2022-11-21T08:10:51.765Z,81.03
2022-11-21T08:15:55.176Z,81.14
2022-11-21T08:21:01.761Z,80.98
2022-11-21T08:26:05.074Z,80.98
2022-11-21T08:31:08.588Z,81.16
2022-11-21T08:36:12.105Z,80.99
2022-11-21T08:41:34.362Z,80.83
2022-11-21T08:46:37.876Z,80.93
2022-11-21T08:51:41.700Z,80.80
2022-11-21T08:56:45.725Z,80.65
2022-11-21T09:01:49.358Z,80.77
2022-11-21T09:06:53.267Z,80.73
2022-11-21T09:11:56.581Z,80.59
2022-11-21T09:17:18.629Z,80.81
2022-11-21T09:22:22.042Z,80.37
2022-11-21T09:27:25.454Z,80.20
2022-11-21T09:32:28.867Z,80.13
2022-11-21T09:37:38.153Z,80.28
2022-11-21T09:42:44.298Z,80.23
2022-11-21T09:47:52.918Z,79.61
2022-11-21T09:52:59.827Z,79.51
2022-11-21T09:58:05.472Z,79.66
2022-11-21T10:03:15.599Z,79.64
2022-11-21T10:08:48.111Z,79.72
2022-11-21T10:14:15.636Z,79.25
2022-11-21T10:19:31.234Z,79.07
2022-11-21T10:24:59.432Z,78.96
2022-11-21T10:30:06.118Z,78.98
2022-11-21T10:35:22.984Z,79.02
2022-11-21T10:40:59.536Z,79.16
2022-11-21T10:46:02.950Z,78.87
2022-11-21T10:51:37.593Z,78.75
2022-11-21T10:56:40.852Z,78.43
2022-11-21T11:01:56.143Z,78.63
2022-11-21T11:07:24.454Z,78.49
2022-11-21T11:12:49.000Z,78.21
2022-11-21T11:17:59.161Z,78.41
2022-11-21T11:23:20.309Z,78.54
2022-11-21T11:28:25.558Z,78.27
2022-11-21T11:33:50.578Z,78.11
2022-11-21T11:38:59.316Z,77.57
2022-11-21T11:44:33.756Z,77.50
2022-11-21T11:49:59.901Z,77.69
2022-11-21T11:55:14.987Z,77.41
2022-11-21T12:00:46.561Z,77.42
2022-11-21T12:06:09.129Z,77.13
2022-11-21T12:11:47.557Z,77.25
2022-11-21T12:16:50.971Z,77.02
2022-11-21T12:21:54.386Z,76.84
2022-11-21T12:27:21.861Z,76.96
2022-11-21T12:32:34.489Z,76.81
2022-11-21T12:38:22.858Z,76.69
2022-11-21T12:44:27.505Z,76.78
2022-11-21T12:50:41.166Z,76.38
2022-11-21T12:55:44.988Z,76.52
2022-11-21T13:01:19.705Z,76.63
2022-11-21T13:06:33.082Z,76.63
2022-11-21T13:11:58.924Z,76.40
2022-11-21T13:17:36.844Z,76.34
2022-11-21T13:22:42.612Z,76.39
2022-11-21T13:27:46.027Z,76.26
2022-11-21T13:32:56.022Z,76.39
2022-11-21T13:38:04.733Z,76.12
2022-11-21T13:43:36.466Z,75.93
2022-11-21T13:49:07.678Z,76.17
2022-11-21T13:54:55.529Z,76.27
2022-11-21T14:00:38.365Z,76.30
2022-11-21T14:05:58.369Z,76.41
2022-11-21T14:11:30.358Z,76.46
2022-11-21T14:16:51.172Z,76.57
2022-11-21T14:21:55.815Z,76.60
2022-11-21T14:26:59.333Z,76.70
2022-11-21T14:32:02.956Z,76.58
2022-11-21T14:37:08.000Z,76.66
2022-11-21T14:42:15.604Z,76.75
2022-11-21T14:47:26.158Z,76.60
2022-11-21T14:52:33.191Z,76.66
2022-11-21T14:57:42.846Z,76.94
2022-11-21T15:02:47.091Z,76.97
2022-11-21T15:07:50.862Z,76.86
2022-11-21T15:12:59.128Z,77.03
2022-11-21T15:23:31.876Z,77.38
2022-11-21T15:28:35.174Z,77.30
2022-11-21T15:39:24.808Z,77.61
2022-11-21T15:44:28.446Z,77.47
2022-11-21T15:49:33.452Z,77.60
2022-11-21T15:54:37.204Z,77.79
2022-11-21T15:57:15.607Z,77.36
2022-11-21T15:59:40.604Z,77.65
2022-11-21T16:04:44.223Z,78.00
2022-11-21T16:09:47.994Z,77.77
2022-11-21T16:14:51.561Z,78.24
2022-11-21T16:19:54.870Z,78.03
2022-11-21T16:24:58.283Z,78.18
2022-11-21T16:30:01.595Z,78.22
2022-11-21T16:35:06.033Z,78.22
2022-11-21T16:40:10.676Z,78.27
2022-11-21T16:45:14.295Z,78.54
2022-11-21T16:50:18.115Z,78.51
2022-11-21T16:55:21.427Z,78.57
2022-11-21T17:00:25.965Z,78.49
2022-11-21T17:05:29.173Z,78.60
2022-11-21T17:10:34.098Z,78.73
2022-11-21T17:15:37.638Z,78.83
2022-11-21T17:20:40.949Z,78.76
2022-11-21T17:25:44.360Z,78.85
2022-11-21T17:30:47.779Z,79.16
2022-11-21T17:35:51.906Z,78.84
2022-11-21T17:41:02.590Z,79.02
2022-11-21T17:46:10.252Z,79.09
2022-11-21T17:51:17.257Z,78.86
2022-11-21T17:56:25.534Z,78.99
2022-11-21T18:01:29.898Z,79.05
2022-11-21T18:06:34.500Z,79.07
2022-11-21T18:11:40.327Z,79.19
2022-11-21T18:16:50.716Z,79.11
2022-11-21T18:21:56.414Z,79.24
2022-11-21T18:26:59.827Z,79.21
2022-11-21T18:32:03.240Z,79.23
2022-11-21T18:37:06.757Z,79.17
2022-11-21T18:42:10.168Z,79.22
2022-11-21T18:47:20.372Z,79.15
2022-11-21T18:52:25.193Z,79.16
2022-11-21T18:57:28.601Z,79.28
2022-11-21T19:02:32.224Z,79.39
2022-11-21T19:07:35.695Z,79.42
2022-11-21T19:12:39.878Z,79.51
2022-11-21T19:17:43.380Z,79.69
2022-11-21T19:22:46.691Z,79.52
2022-11-21T19:27:50.103Z,79.81
2022-11-21T19:32:54.320Z,79.88
2022-11-21T19:37:57.543Z,79.97
2022-11-21T19:43:00.957Z,79.95
2022-11-21T19:48:04.677Z,79.84
2022-11-21T19:53:08.089Z,79.79
2022-11-21T19:58:11.506Z,79.87
2022-11-21T20:03:14.814Z,79.69
2022-11-21T20:08:18.456Z,80.00
2022-11-21T20:13:21.950Z,80.08
2022-11-21T20:18:25.463Z,80.02
2022-11-21T20:23:29.084Z,80.26
2022-11-21T20:28:36.899Z,80.09
2022-11-21T20:33:42.656Z,80.02
2022-11-21T20:38:56.626Z,80.07
2022-11-21T20:44:53.314Z,80.04
2022-11-21T20:49:25.780Z,80.05
2022-11-21T20:54:29.276Z,80.19
2022-11-21T20:59:52.915Z,80.33
2022-11-21T21:04:56.396Z,80.33
2022-11-21T21:10:00.129Z,80.32
2022-11-21T21:15:03.736Z,80.27
2022-11-21T21:20:08.450Z,80.33
2022-11-21T21:25:11.789Z,80.31
2022-11-21T21:30:16.019Z,80.26
2022-11-21T21:35:19.743Z,80.38
2022-11-21T21:40:23.154Z,80.38
2022-11-21T21:45:26.672Z,80.44
2022-11-21T21:50:30.289Z,80.23
2022-11-21T21:55:33.702Z,80.43
2022-11-21T22:00:37.321Z,80.49
2022-11-21T22:05:40.631Z,80.60
2022-11-21T22:10:44.147Z,80.61
2022-11-21T22:15:47.866Z,80.57
2022-11-21T22:20:51.793Z,80.57
2022-11-21T22:25:58.689Z,80.79
2022-11-21T22:31:02.100Z,80.63
2022-11-21T22:36:16.979Z,80.77
2022-11-21T22:41:25.869Z,80.73
2022-11-21T22:46:30.532Z,80.70
2022-11-21T22:51:35.003Z,80.70
2022-11-21T22:56:38.416Z,80.73
2022-11-21T23:01:42.097Z,80.70
2022-11-21T23:06:45.762Z,80.65
2022-11-21T23:11:49.273Z,80.88
2022-11-21T23:16:52.793Z,80.57
2022-11-21T23:21:56.311Z,80.66
2022-11-21T23:27:00.130Z,80.58
2022-11-21T23:32:03.852Z,80.60
2022-11-21T23:37:07.365Z,80.75
2022-11-21T23:42:10.886Z,80.75
2022-11-21T23:47:14.396Z,80.68
2022-11-21T23:52:18.019Z,80.73
2022-11-21T23:57:21.531Z,80.85
